Time;durP1;ratioP1;P1;durP2;ratioP2;P2;SDS_P1;SDS_P2;PMS_P1;PMS_P2;Temp;Humidity;BMP_temperature;BMP_pressure;BME280_temperature;BME280_humidity;BME280_pressure;Samples;Min_cycle;Max_cycle;Signal;HPM_P1;HPM_P2
2022/07/29 00:01:53;;;;;;;3.93;3.30;;;26.20;55.50;;;-142.21;63.78;112049.66;5060046;28;20202;-75
2022/07/29 00:04:20;;;;;;;3.63;3.20;;;26.20;54.80;;;-142.21;63.71;112049.66;5066021;28;20205;-74
2022/07/29 00:06:47;;;;;;;3.37;3.07;;;26.20;55.00;;;-142.21;64.34;112049.66;5056028;28;20205;-75
2022/07/29 00:09:15;;;;;;;3.80;3.50;;;26.20;55.00;;;-142.21;64.02;112049.66;5063673;28;20330;-73
2022/07/29 00:11:43;;;;;;;4.40;2.93;;;26.20;55.00;;;-142.21;64.94;112049.66;5070307;28;20200;-74
2022/07/29 00:14:10;;;;;;;3.83;3.13;;;26.20;55.60;;;-142.21;65.20;112049.66;5032458;28;20200;-74
2022/07/29 00:16:38;;;;;;;3.70;3.40;;;26.20;55.10;;;-142.21;66.30;112049.66;5022855;28;20304;-74
2022/07/29 00:19:06;;;;;;;3.40;3.10;;;26.20;55.20;;;-142.21;65.98;112049.66;5055491;28;20296;-75
2022/07/29 00:21:33;;;;;;;3.70;3.00;;;26.20;55.30;;;-142.21;67.10;112049.66;5067871;28;20197;-74
2022/07/29 00:24:00;;;;;;;3.60;2.90;;;26.20;55.40;;;-142.21;67.24;112049.66;5044045;28;20672;-75
2022/07/29 00:26:31;;;;;;;4.27;3.27;;;26.10;55.50;;;-142.21;67.10;112049.66;5060473;28;20204;-74
2022/07/29 00:28:59;;;;;;;4.90;3.00;;;26.00;55.60;;;-142.21;67.22;112049.66;5072220;28;20189;-74
2022/07/29 00:31:26;;;;;;;4.03;3.40;;;26.00;55.80;;;-142.21;68.29;112049.66;5068498;28;20561;-75
2022/07/29 00:33:54;;;;;;;3.73;3.00;;;26.00;55.80;;;-142.21;68.38;112049.66;5057062;28;20197;-75
2022/07/29 00:36:22;;;;;;;3.30;3.00;;;25.90;55.80;;;-142.21;68.62;112049.66;5063676;28;20381;-75
2022/07/29 00:38:50;;;;;;;3.30;3.00;;;25.90;55.90;;;-142.21;68.57;112049.66;5063579;28;20202;-75
2022/07/29 00:41:19;;;;;;;3.80;3.47;;;25.80;56.80;;;-142.21;69.20;112049.66;5059921;28;20557;-75
2022/07/29 00:43:46;;;;;;;3.50;3.20;;;25.80;56.40;;;-142.21;69.22;112049.66;5052643;28;20312;-75
2022/07/29 00:46:14;;;;;;;3.67;2.93;;;25.80;56.50;;;-142.21;69.44;112049.66;5054948;28;20281;-74
2022/07/29 00:48:41;;;;;;;3.70;3.20;;;25.80;56.50;;;-142.21;69.70;112049.66;5066937;28;20297;-75
2022/07/29 00:51:10;;;;;;;4.03;3.57;;;25.80;57.20;;;-142.21;69.90;112049.66;5064691;28;20564;-75
2022/07/29 00:53:39;;;;;;;3.40;3.10;;;25.80;56.70;;;-142.21;70.22;112049.66;5061370;28;20250;-75
2022/07/29 00:56:06;;;;;;;7.10;3.47;;;25.80;56.80;;;-142.21;70.40;112049.66;5066950;28;20229;-74
2022/07/29 00:58:34;;;;;;;3.40;3.10;;;25.80;56.90;;;-142.21;70.98;112049.66;5034134;28;20285;-75
2022/07/29 01:01:01;;;;;;;3.60;3.30;;;25.80;57.00;;;-142.21;71.07;112049.66;5022710;28;20201;-74
2022/07/29 01:03:28;;;;;;;4.30;3.30;;;25.70;57.20;;;-142.21;71.40;112049.66;5068000;28;20209;-73
2022/07/29 01:05:56;;;;;;;3.73;3.03;;;25.70;57.40;;;-142.21;71.41;112049.66;5068128;28;20209;-74
2022/07/29 01:08:24;;;;;;;3.40;3.10;;;25.60;57.30;;;-142.21;72.30;112049.66;5056512;28;20233;-75
2022/07/29 01:10:55;;;;;;;3.60;3.30;;;25.60;57.70;;;-142.21;72.53;112049.66;5058647;28;20208;-74
2022/07/29 01:13:22;;;;;;;3.47;3.10;;;25.60;57.80;;;-142.21;72.72;112049.66;5055937;28;20206;-75
2022/07/29 01:15:59;;;;;;;4.57;3.50;;;25.50;57.70;;;-142.21;72.91;112049.66;5070309;28;20223;-75
2022/07/29 01:18:38;;;;;;;3.80;3.50;;;25.50;57.90;;;-142.21;73.17;112049.66;5067723;28;20288;-75
2022/07/29 01:21:39;;;;;;;3.73;3.43;;;25.40;58.00;;;-142.21;73.80;112049.66;5074326;28;20189;-75
2022/07/29 01:24:31;;;;;;;3.57;3.10;;;25.40;58.40;;;-142.21;73.82;112049.66;5067833;28;20193;-74
2022/07/29 01:27:18;;;;;;;3.80;3.40;;;25.40;58.90;;;-142.21;74.39;112049.66;5060646;28;20190;-74
2022/07/29 01:29:56;;;;;;;4.23;3.20;;;25.40;58.30;;;-142.21;75.05;112049.66;5067731;28;20220;-74
2022/07/29 01:32:28;;;;;;;3.90;3.53;;;25.30;59.10;;;-142.21;75.74;112049.66;5065272;28;20272;-75
2022/07/29 01:35:03;;;;;;;5.30;3.07;;;25.30;58.60;;;-142.21;75.72;112049.66;5074149;28;20197;-75
2022/07/29 01:37:37;;;;;;;3.90;3.27;;;25.20;58.60;;;-142.21;75.67;112049.66;5068355;28;20284;-74
2022/07/29 01:40:12;;;;;;;4.47;3.40;;;25.20;58.70;;;-142.21;76.17;112049.66;5067210;28;20280;-75
2022/07/29 01:42:45;;;;;;;3.20;2.80;;;25.20;58.80;;;-142.21;76.29;112049.66;5055652;28;20203;-74
2022/07/29 01:45:19;;;;;;;3.50;3.00;;;25.10;59.10;;;-142.21;76.67;112049.66;5056368;28;20193;-74
2022/07/29 01:47:57;;;;;;;3.63;3.13;;;25.10;59.30;;;-142.21;76.93;112049.66;5071973;28;20280;-75
2022/07/29 01:50:34;;;;;;;3.50;3.20;;;25.00;59.40;;;-142.21;76.91;112049.66;5056239;28;20193;-76
2022/07/29 01:53:05;;;;;;;3.57;3.10;;;25.00;59.30;;;-142.21;77.30;112049.66;5074917;28;20211;-74
2022/07/29 01:55:40;;;;;;;3.50;3.20;;;25.00;59.50;;;-142.21;77.20;112049.66;5061294;28;20220;-74
2022/07/29 01:58:10;;;;;;;3.80;3.43;;;25.00;59.80;;;-142.21;77.35;112049.66;5057967;28;20194;-75
2022/07/29 02:00:41;;;;;;;3.47;3.17;;;24.90;59.60;;;-142.21;76.99;112049.66;5063303;28;20582;-74
2022/07/29 02:03:13;;;;;;;3.43;3.13;;;24.90;59.60;;;-142.21;77.21;112049.66;5072807;28;20300;-75
2022/07/29 02:05:44;;;;;;;3.70;3.33;;;25.00;59.80;;;-142.21;77.50;112049.66;5071561;28;20186;-75
2022/07/29 02:08:14;;;;;;;5.80;3.20;;;25.00;59.90;;;-142.21;77.38;112049.66;5068135;28;20312;-75
2022/07/29 02:10:44;;;;;;;4.37;3.43;;;24.90;59.70;;;-142.21;77.75;112049.66;5054293;28;20205;-75
2022/07/29 02:13:16;;;;;;;3.53;3.23;;;24.90;59.70;;;-142.21;77.97;112049.66;5063690;28;20288;-74
2022/07/29 02:15:47;;;;;;;3.40;3.10;;;24.90;59.90;;;-142.21;77.89;112049.66;5073483;28;20236;-75
2022/07/29 02:18:20;;;;;;;3.70;3.40;;;24.90;59.90;;;-142.21;78.15;112049.66;5020416;28;20675;-75
2022/07/29 02:20:53;;;;;;;3.17;2.83;;;24.90;60.10;;;-142.21;78.18;112049.66;5055246;28;20694;-75
2022/07/29 02:23:23;;;;;;;4.57;4.10;;;24.90;59.90;;;-142.21;78.27;112049.66;5056361;28;20244;-75
2022/07/29 02:25:54;;;;;;;5.43;3.50;;;24.80;59.90;;;-142.21;77.96;112049.66;5057125;28;20273;-75
2022/07/29 02:28:24;;;;;;;3.70;3.40;;;24.80;59.90;;;-142.21;77.68;112049.66;5070998;28;20274;-75
2022/07/29 02:30:58;;;;;;;3.73;3.43;;;24.80;59.90;;;-142.21;77.84;112049.66;5066942;28;20194;-74
2022/07/29 02:33:28;;;;;;;4.93;3.00;;;24.80;60.00;;;-142.21;77.91;112049.66;5075503;28;20268;-74
2022/07/29 02:35:59;;;;;;;3.93;3.50;;;24.70;59.90;;;-142.21;77.96;112049.66;5066149;28;20297;-75
2022/07/29 02:41:23;;;;;;;3.80;3.47;;;24.60;60.10;;;-142.21;78.86;112049.66;5062254;28;20252;-75
2022/07/29 02:43:57;;;;;;;3.83;3.20;;;24.60;60.20;;;-142.21;79.93;112049.66;5073747;28;20216;-75
2022/07/29 02:46:33;;;;;;;3.73;3.40;;;24.50;60.50;;;-142.21;79.76;112049.66;5089267;28;20217;-74
2022/07/29 02:49:09;;;;;;;4.30;3.50;;;24.50;60.90;;;-142.21;80.04;112049.66;5058262;28;20708;-75
2022/07/29 02:51:46;;;;;;;4.10;3.70;;;24.40;60.70;;;-142.21;80.55;112049.66;5055103;28;20203;-74
2022/07/29 02:54:27;;;;;;;3.70;3.30;;;24.40;61.20;;;-142.21;80.78;112049.66;5066921;28;20198;-74
2022/07/29 02:57:01;;;;;;;3.30;3.07;;;24.30;61.10;;;-142.21;80.69;112049.66;5052599;28;20316;-74
2022/07/29 02:59:35;;;;;;;3.90;3.50;;;24.20;61.00;;;-142.21;80.87;112049.66;5074191;28;20192;-74
2022/07/29 03:02:05;;;;;;;3.90;3.50;;;24.10;61.10;;;-142.21;81.23;112049.66;5059845;28;20205;-74
2022/07/29 03:04:35;;;;;;;4.37;3.70;;;24.10;61.10;;;-142.21;81.19;112049.66;5071443;28;20197;-74
2022/07/29 03:07:04;;;;;;;3.90;3.23;;;24.10;61.10;;;-142.21;81.45;112049.66;5076424;28;20219;-74
2022/07/29 03:09:33;;;;;;;3.40;3.10;;;24.10;61.40;;;-142.21;81.75;112049.66;5070735;28;20236;-74
2022/07/29 03:12:04;;;;;;;3.67;3.33;;;24.00;61.50;;;-142.21;81.79;112049.66;5070926;28;20208;-75
2022/07/29 03:14:33;;;;;;;3.47;2.93;;;24.00;61.60;;;-142.21;81.70;112049.66;5056150;28;20322;-75
2022/07/29 03:17:01;;;;;;;3.50;3.20;;;24.00;61.50;;;-142.21;82.00;112049.66;5062607;28;20676;-75
2022/07/29 03:19:30;;;;;;;3.97;3.50;;;24.00;61.70;;;-142.21;82.11;112049.66;5063376;28;20201;-75
2022/07/29 03:21:59;;;;;;;4.27;3.50;;;24.00;61.90;;;-142.21;82.39;112049.66;5067032;28;20201;-75
2022/07/29 03:24:28;;;;;;;4.60;3.60;;;23.90;62.00;;;-142.21;82.77;112049.66;5065461;28;20208;-75
2022/07/29 03:26:57;;;;;;;3.97;3.57;;;23.90;62.20;;;-142.21;82.80;112049.66;5067912;28;20231;-75
2022/07/29 03:29:25;;;;;;;4.23;3.83;;;23.90;62.20;;;-142.21;82.55;112049.66;5056837;28;20208;-75
2022/07/29 03:31:53;;;;;;;4.13;3.40;;;23.80;61.90;;;-142.21;82.60;112049.66;5065158;28;20250;-75
2022/07/29 03:34:20;;;;;;;3.93;3.47;;;23.90;62.20;;;-142.21;83.11;112049.66;5062405;28;20201;-74
2022/07/29 03:36:49;;;;;;;4.17;3.77;;;23.80;62.30;;;-142.21;83.29;112049.66;5062912;28;20228;-74
2022/07/29 03:39:22;;;;;;;6.47;3.97;;;23.80;63.30;;;-142.21;83.54;112049.66;5062087;28;20288;-75
2022/07/29 03:41:56;;;;;;;4.30;3.33;;;23.80;62.60;;;-142.21;83.55;112049.66;5058224;28;20200;-75
2022/07/29 03:44:25;;;;;;;3.90;3.50;;;23.80;62.60;;;-142.21;83.94;112049.66;5073037;28;20548;-75
2022/07/29 03:46:58;;;;;;;3.67;3.37;;;23.80;62.80;;;-142.21;83.83;112049.66;5069557;28;20210;-75
2022/07/29 03:49:27;;;;;;;3.80;3.43;;;23.80;63.90;;;-142.21;84.09;112049.66;5063232;28;20537;-75
2022/07/29 03:51:57;;;;;;;4.10;3.70;;;23.70;62.90;;;-142.21;84.20;112049.66;5067716;28;20204;-75
2022/07/29 03:54:25;;;;;;;3.80;3.50;;;23.70;63.00;;;-142.21;84.54;112049.66;5057115;28;20235;-75
2022/07/29 03:56:55;;;;;;;3.67;3.33;;;23.70;63.00;;;-142.21;84.80;112049.66;5071490;28;20264;-75
2022/07/29 03:59:23;;;;;;;4.23;3.83;;;23.60;63.30;;;-142.21;85.26;112049.66;5055702;28;20232;-74
2022/07/29 04:01:52;;;;;;;3.53;3.23;;;23.50;63.50;;;-142.21;86.28;112049.66;5061442;28;20208;-74
2022/07/29 04:04:19;;;;;;;4.07;3.67;;;23.40;64.50;;;-142.21;86.63;112049.66;5054996;28;20216;-74
2022/07/29 04:06:47;;;;;;;4.20;3.63;;;23.40;63.90;;;-142.21;86.50;112049.66;5064541;28;20197;-74
2022/07/29 04:09:16;;;;;;;4.03;3.43;;;23.40;64.00;;;-142.21;86.60;112049.66;5072757;28;20664;-74
2022/07/29 04:11:43;;;;;;;5.23;4.33;;;23.40;64.20;;;-142.21;86.59;112049.66;5067461;28;20209;-74
2022/07/29 04:14:10;;;;;;;4.83;3.70;;;23.40;64.20;;;-142.21;86.74;112049.66;5066797;28;20204;-75
2022/07/29 04:16:37;;;;;;;3.90;3.60;;;23.30;64.20;;;-142.21;87.23;112049.66;5070540;28;20238;-75
2022/07/29 04:19:05;;;;;;;4.67;4.00;;;23.30;64.50;;;-142.21;88.05;112049.66;5073117;28;20204;-75
2022/07/29 04:21:32;;;;;;;4.30;3.87;;;23.30;65.00;;;-142.21;88.46;112049.66;5057492;28;20658;-74
2022/07/29 04:24:00;;;;;;;5.73;4.33;;;23.10;65.00;;;-142.21;89.07;112049.66;5067285;28;20212;-74
2022/07/29 04:26:28;;;;;;;4.67;3.70;;;23.20;65.60;;;-142.21;88.62;112049.66;5054548;28;20631;-75
2022/07/29 04:28:56;;;;;;;3.63;3.33;;;23.20;65.60;;;-142.21;88.98;112049.66;5065388;28;20286;-74
2022/07/29 04:31:23;;;;;;;4.07;3.67;;;23.20;65.50;;;-142.21;89.25;112049.66;5065979;28;20201;-75
2022/07/29 04:33:50;;;;;;;4.33;3.70;;;23.10;65.50;;;-142.21;89.31;112049.66;5071001;28;20216;-75
2022/07/29 04:36:17;;;;;;;4.17;3.80;;;23.10;65.60;;;-142.21;89.92;112049.66;5067791;28;20245;-75
2022/07/29 04:38:44;;;;;;;4.33;3.93;;;23.00;66.00;;;-142.21;90.11;112049.66;5057679;28;20606;-75
2022/07/29 04:41:11;;;;;;;4.20;3.90;;;23.00;66.30;;;-142.21;90.25;112049.66;5062065;28;20228;-75
2022/07/29 04:43:40;;;;;;;4.03;3.73;;;23.00;66.30;;;-142.21;90.58;112049.66;5057989;28;20225;-75
2022/07/29 04:46:08;;;;;;;4.97;3.90;;;23.00;66.40;;;-142.21;90.69;112049.66;5069079;28;20201;-75
2022/07/29 04:48:35;;;;;;;5.73;4.17;;;23.00;66.70;;;-142.21;90.29;112049.66;5066787;28;20287;-75
2022/07/29 04:51:02;;;;;;;4.00;3.60;;;23.00;66.40;;;-142.21;90.70;112049.66;5060484;28;20201;-75
2022/07/29 04:53:29;;;;;;;7.70;4.67;;;22.90;66.70;;;-142.21;91.41;112049.66;5062574;28;20289;-74
2022/07/29 04:55:56;;;;;;;5.53;3.80;;;23.00;67.10;;;-142.21;91.04;112049.66;5053871;28;20537;-74
2022/07/29 04:58:24;;;;;;;4.80;4.30;;;22.90;66.70;;;-142.21;90.92;112049.66;5070675;28;20303;-75
2022/07/29 05:00:52;;;;;;;4.87;4.43;;;23.00;66.90;;;-142.21;90.97;112049.66;5062897;28;20287;-74
2022/07/29 05:03:19;;;;;;;5.37;4.00;;;23.00;66.90;;;-142.21;90.75;112049.66;5052522;28;20236;-75
2022/07/29 05:05:46;;;;;;;6.30;3.70;;;23.00;66.80;;;-142.21;90.66;112049.66;5064618;28;20203;-74
2022/07/29 05:08:14;;;;;;;4.50;4.10;;;23.10;66.80;;;-142.21;90.97;112049.66;5053874;28;20329;-75
2022/07/29 05:10:41;;;;;;;4.70;4.30;;;23.10;66.90;;;-142.21;91.12;112049.66;5054042;28;20201;-75
2022/07/29 05:13:09;;;;;;;4.03;3.73;;;23.20;67.00;;;-142.21;90.63;112049.66;5069775;28;20204;-74
2022/07/29 05:15:37;;;;;;;4.50;4.10;;;23.20;66.80;;;-142.21;90.59;112049.66;5058310;28;20296;-75
2022/07/29 05:18:07;;;;;;;4.70;4.27;;;23.20;66.70;;;-142.21;91.55;112049.66;5068094;28;20307;-74
2022/07/29 05:20:34;;;;;;;4.07;3.63;;;23.30;68.10;;;-142.21;91.57;112049.66;5055697;28;20248;-74
2022/07/29 05:23:02;;;;;;;6.00;3.77;;;23.30;67.20;;;-142.21;91.22;112049.66;5056793;28;20301;-74
2022/07/29 05:25:30;;;;;;;4.40;4.00;;;23.30;67.20;;;-142.21;91.08;112049.66;5053823;28;20700;-75
2022/07/29 05:27:57;;;;;;;5.07;3.87;;;23.30;67.00;;;-142.21;91.62;112049.66;5053207;28;20202;-74
2022/07/29 05:30:24;;;;;;;4.90;4.23;;;23.40;67.20;;;-142.21;91.48;112049.66;5053696;28;20209;-74
2022/07/29 05:32:52;;;;;;;4.67;4.27;;;23.40;67.80;;;-142.21;91.80;112049.66;5065876;28;20233;-75
2022/07/29 05:35:21;;;;;;;5.03;4.03;;;23.40;67.30;;;-142.21;92.17;112049.66;5060026;28;20223;-76
2022/07/29 05:37:48;;;;;;;5.43;4.60;;;23.30;67.60;;;-142.21;92.37;112049.66;5054473;28;20228;-75
2022/07/29 05:40:15;;;;;;;5.33;4.13;;;23.30;67.70;;;-142.21;91.22;112049.66;5057511;28;20616;-72
2022/07/29 05:42:45;;;;;;;4.63;4.20;;;23.40;67.30;;;-142.21;91.62;112049.66;5055386;28;20213;-72
2022/07/29 05:45:12;;;;;;;5.13;4.33;;;23.50;67.60;;;-142.21;91.51;112049.66;5057852;28;20206;-73
2022/07/29 05:47:39;;;;;;;5.60;4.23;;;23.50;67.30;;;-142.21;90.09;112049.66;5055461;28;20209;-73
2022/07/29 05:50:08;;;;;;;5.70;4.40;;;23.60;66.80;;;-142.21;89.43;112049.66;5070155;28;20284;-74
2022/07/29 05:52:37;;;;;;;8.37;4.77;;;23.70;66.60;;;-142.21;89.43;112049.66;5066926;28;20271;-73
2022/07/29 05:55:05;;;;;;;5.27;4.70;;;23.80;66.20;;;-142.21;89.20;112049.66;5024056;28;20198;-73
2022/07/29 05:57:33;;;;;;;5.27;4.20;;;23.80;66.20;;;-142.21;89.42;112049.66;5048115;28;20216;-73
2022/07/29 06:00:00;;;;;;;4.90;4.50;;;23.90;66.30;;;-142.21;87.62;112049.66;5070430;28;20199;-75
2022/07/29 06:02:27;;;;;;;5.27;4.77;;;24.00;65.50;;;-142.21;87.46;112049.66;5061669;28;20761;-73
2022/07/29 06:04:54;;;;;;;5.10;4.63;;;24.10;65.40;;;-142.21;85.60;112049.66;5061856;28;20206;-74
2022/07/29 06:07:21;;;;;;;5.13;4.53;;;24.20;64.80;;;-142.21;84.62;112049.66;5055699;28;20750;-74
2022/07/29 06:09:50;;;;;;;5.33;4.67;;;24.30;64.90;;;-142.21;82.74;112049.66;5066157;28;20374;-75
2022/07/29 06:12:17;;;;;;;7.33;5.33;;;24.30;63.60;;;-142.21;81.71;112049.66;5058119;28;20292;-73
2022/07/29 06:14:44;;;;;;;5.77;4.87;;;24.20;63.00;;;-142.21;79.99;112049.66;5061618;28;20288;-75
2022/07/29 06:17:12;;;;;;;6.13;4.70;;;24.30;62.40;;;-142.21;80.31;112049.66;5061201;28;20236;-75
2022/07/29 06:19:39;;;;;;;5.73;4.90;;;24.40;62.40;;;-142.21;78.96;112049.66;5054306;28;20214;-75
2022/07/29 06:22:06;;;;;;;5.03;4.23;;;24.40;61.80;;;-142.21;77.82;112049.66;5061357;28;20244;-75
2022/07/29 06:24:33;;;;;;;6.27;4.17;;;24.30;61.30;;;-142.21;77.65;112049.66;5061210;28;20212;-75
2022/07/29 06:27:02;;;;;;;4.10;3.80;;;24.40;61.40;;;-142.21;76.26;112049.66;5057163;28;20233;-74
2022/07/29 06:29:29;;;;;;;5.23;4.30;;;24.50;60.80;;;-142.21;74.10;112049.66;5058364;28;20251;-74
2022/07/29 06:31:56;;;;;;;4.40;3.87;;;24.60;60.10;;;-142.21;69.77;112049.66;5063862;28;20201;-74
2022/07/29 06:34:23;;;;;;;5.63;3.97;;;24.60;58.80;;;-142.21;69.51;112049.66;5065855;28;20213;-75
2022/07/29 06:36:52;;;;;;;4.67;4.00;;;24.70;58.40;;;-142.21;68.10;112049.66;5059372;28;20216;-74
2022/07/29 06:39:19;;;;;;;4.10;3.70;;;24.70;57.90;;;-142.21;68.29;112049.66;5063116;28;20209;-73
2022/07/29 06:41:50;;;;;;;4.20;3.80;;;24.80;57.70;;;-142.21;67.68;112049.66;5072050;28;20300;-73
2022/07/29 06:44:19;;;;;;;4.67;3.90;;;24.70;57.30;;;-142.21;68.41;112049.66;5063482;28;20241;-73
2022/07/29 06:46:48;;;;;;;4.77;3.57;;;24.70;57.60;;;-142.21;68.61;112049.66;5049782;28;20209;-74
2022/07/29 06:49:16;;;;;;;5.37;4.63;;;24.90;57.80;;;-142.21;67.64;112049.66;5056958;28;20220;-74
2022/07/29 06:51:43;;;;;;;5.80;4.20;;;24.90;57.50;;;-142.21;67.61;112049.66;5058843;28;20534;-73
2022/07/29 06:54:10;;;;;;;5.07;4.03;;;25.00;57.40;;;-142.21;68.47;112049.66;5073493;28;20288;-73
2022/07/29 06:56:41;;;;;;;6.67;4.13;;;24.90;58.10;;;-142.21;68.50;112049.66;5070333;28;20201;-74
2022/07/29 06:59:10;;;;;;;8.90;5.00;;;24.90;57.70;;;-142.21;68.38;112049.66;5054261;28;20193;-74
2022/07/29 07:01:41;;;;;;;4.90;4.40;;;25.00;58.00;;;-142.21;69.32;112049.66;5053801;28;20312;-74
2022/07/29 07:04:09;;;;;;;5.07;4.37;;;24.90;58.10;;;-142.21;69.39;112049.66;5053957;28;20190;-74
2022/07/29 07:06:38;;;;;;;7.47;4.27;;;25.00;58.10;;;-142.21;70.01;112049.66;5054010;28;20216;-75
2022/07/29 07:09:05;;;;;;;6.23;4.30;;;25.10;58.20;;;-142.21;69.59;112049.66;5057027;28;20237;-74
2022/07/29 07:11:33;;;;;;;5.57;4.30;;;25.30;58.00;;;-142.21;69.58;112049.66;5065935;28;20287;-74
2022/07/29 07:14:00;;;;;;;6.73;4.43;;;25.30;57.90;;;-142.21;70.12;112049.66;5067056;28;20217;-74
2022/07/29 07:16:27;;;;;;;4.80;4.40;;;25.50;57.80;;;-142.21;69.31;112049.66;5059725;28;20197;-74
2022/07/29 07:18:55;;;;;;;4.97;4.17;;;25.50;57.70;;;-142.21;68.04;112049.66;5067388;28;20221;-74
2022/07/29 07:21:23;;;;;;;5.80;4.20;;;25.70;57.40;;;-142.21;67.91;112049.66;5056045;28;20301;-74
2022/07/29 07:23:50;;;;;;;4.67;4.27;;;25.80;57.20;;;-142.21;67.49;112049.66;5054861;28;20617;-74
2022/07/29 07:26:18;;;;;;;4.77;3.83;;;25.90;57.00;;;-142.21;68.30;112049.66;5053693;28;20296;-74
2022/07/29 07:28:45;;;;;;;4.80;4.27;;;26.00;57.10;;;-142.21;66.77;112049.66;5066958;28;20205;-74
2022/07/29 07:31:12;;;;;;;5.47;4.27;;;26.10;56.80;;;-142.21;66.85;112049.66;5073800;28;20220;-74
2022/07/29 07:33:40;;;;;;;4.80;4.00;;;26.30;56.60;;;-142.21;65.35;112049.66;5072909;28;20216;-74
2022/07/29 07:36:08;;;;;;;4.23;3.83;;;26.40;56.20;;;-142.21;65.64;112049.66;5058651;28;20260;-74
2022/07/29 07:38:36;;;;;;;7.40;4.20;;;26.50;56.20;;;-142.21;64.90;112049.66;5054811;28;20628;-73
2022/07/29 07:41:04;;;;;;;4.27;3.80;;;26.50;55.80;;;-142.21;64.36;112049.66;5066804;28;20241;-74
2022/07/29 07:43:31;;;;;;;7.47;3.90;;;26.70;55.70;;;-142.21;63.67;112049.66;5072334;28;20206;-74
2022/07/29 07:45:58;;;;;;;7.03;3.80;;;26.80;55.70;;;-142.21;61.64;112049.66;5052723;28;20237;-73
2022/07/29 07:48:26;;;;;;;4.70;3.77;;;26.90;55.10;;;-142.21;59.76;112049.66;5059475;28;20653;-73
2022/07/29 07:50:53;;;;;;;5.73;4.10;;;26.90;54.90;;;-142.21;62.34;112049.66;5066805;28;20259;-72
2022/07/29 07:53:23;;;;;;;6.17;4.07;;;26.90;55.00;;;-142.21;59.51;112049.66;5072933;28;20233;-71
2022/07/29 07:55:50;;;;;;;4.00;3.27;;;27.10;54.40;;;-142.21;58.62;112049.66;5070453;28;20206;-73
2022/07/29 07:58:17;;;;;;;4.70;3.73;;;27.10;53.80;;;-142.21;56.73;112049.66;5017936;28;20306;-72
2022/07/29 08:00:45;;;;;;;4.90;3.40;;;27.20;53.20;;;-142.21;57.45;112049.66;5052519;28;20206;-72
2022/07/29 08:03:13;;;;;;;5.03;3.50;;;27.20;53.50;;;-142.21;56.95;112049.66;5053213;28;20226;-71
2022/07/29 08:05:40;;;;;;;5.00;3.80;;;27.30;53.20;;;-142.21;56.25;112049.66;5065025;28;20298;-74
2022/07/29 08:08:11;;;;;;;5.17;3.27;;;27.40;53.00;;;-142.21;54.51;112049.66;5072504;28;20649;-71
2022/07/29 08:10:56;;;;;;;3.87;3.40;;;27.50;52.40;;;-142.21;56.26;112049.66;5073164;28;20639;-70
2022/07/29 08:13:27;;;;;;;4.80;3.60;;;27.50;52.90;;;-142.21;53.73;112049.66;5072882;28;20213;-70
2022/07/29 08:15:59;;;;;;;6.43;3.70;;;27.60;52.00;;;-142.21;52.96;112049.66;5072123;28;20205;-70
2022/07/29 08:18:28;;;;;;;4.43;3.30;;;27.60;52.00;;;-142.21;51.12;112049.66;5053926;28;20226;-73
2022/07/29 08:20:56;;;;;;;4.20;3.47;;;27.40;51.50;;;-142.21;51.12;112049.66;5071997;28;20206;-71
2022/07/29 08:23:24;;;;;;;4.10;2.97;;;27.20;51.50;;;-142.21;51.67;112049.66;5072087;28;20622;-73
2022/07/29 08:25:52;;;;;;;3.77;3.43;;;27.10;52.50;;;-142.21;52.26;112049.66;5072314;28;20206;-72
2022/07/29 08:28:20;;;;;;;8.90;3.60;;;27.20;51.90;;;-142.21;51.87;112049.66;5072563;28;20191;-69
2022/07/29 08:30:47;;;;;;;3.87;3.07;;;27.30;51.80;;;-142.21;53.86;112049.66;5062830;28;20545;-71
2022/07/29 08:33:15;;;;;;;3.37;3.13;;;27.40;52.40;;;-142.21;51.48;112049.66;5054882;28;20215;-71
2022/07/29 08:35:42;;;;;;;3.90;3.30;;;27.50;51.60;;;-142.21;51.24;112049.66;5052363;28;20218;-70
2022/07/29 08:38:10;;;;;;;4.20;3.30;;;27.50;52.20;;;-142.21;51.12;112049.66;5058675;28;20327;-71
2022/07/29 08:40:37;;;;;;;3.50;3.20;;;27.50;51.60;;;-142.21;48.31;112049.66;5052422;28;20659;-70
2022/07/29 08:43:10;;;;;;;3.83;3.43;;;27.70;50.50;;;-142.21;47.83;112049.66;5062237;28;20258;-70
2022/07/29 08:45:46;;;;;;;4.03;3.40;;;27.70;50.00;;;-142.21;46.81;112049.66;5063131;28;20202;-70
2022/07/29 08:48:13;;;;;;;5.27;3.00;;;27.80;49.80;;;-142.21;45.27;112049.66;5056323;28;20271;-71
2022/07/29 08:50:44;;;;;;;3.57;2.93;;;27.90;49.50;;;-142.21;44.33;112049.66;5060931;28;20758;-71
2022/07/29 08:53:16;;;;;;;3.03;2.73;;;28.00;48.80;;;-142.21;43.33;112049.66;5071415;28;20205;-73
2022/07/29 08:55:49;;;;;;;3.77;2.90;;;28.10;48.20;;;-142.21;42.69;112049.66;5056372;28;20195;-73
2022/07/29 08:58:22;;;;;;;3.30;2.53;;;28.10;47.70;;;-142.21;41.72;112049.66;5059413;28;20215;-73
2022/07/29 09:00:54;;;;;;;4.20;2.70;;;28.30;47.20;;;-142.21;41.28;112049.66;5056730;28;20242;-75
2022/07/29 09:03:24;;;;;;;3.07;2.67;;;28.40;46.80;;;-142.21;40.69;112049.66;5052113;28;20292;-75
2022/07/29 09:05:54;;;;;;;4.27;2.67;;;28.30;46.50;;;-142.21;40.45;112049.66;5060434;28;20570;-74
2022/07/29 09:08:22;;;;;;;2.90;2.60;;;28.30;46.30;;;-142.21;40.96;112049.66;5063630;28;20326;-74
2022/07/29 09:10:50;;;;;;;3.40;2.70;;;28.20;46.50;;;-142.21;41.28;112049.66;5061323;28;20729;-75
2022/07/29 09:13:22;;;;;;;3.30;3.00;;;28.20;46.90;;;-142.21;40.85;112049.66;5053218;28;20253;-74
2022/07/29 09:15:51;;;;;;;3.00;2.60;;;28.30;46.60;;;-142.21;40.85;112049.66;5057378;28;20307;-73
2022/07/29 09:18:35;;;;;;;4.47;2.57;;;28.50;46.70;;;-142.21;40.94;112049.66;5054990;28;20238;-75
2022/07/29 09:24:03;;;;;;;4.30;2.80;;;28.70;46.80;;;-142.21;40.18;112049.66;5055090;28;20282;-76
2022/07/29 09:26:32;;;;;;;3.63;2.60;;;28.80;45.40;;;-142.21;40.10;112049.66;5055884;28;20601;-76
2022/07/29 09:29:09;;;;;;;4.03;2.77;;;28.90;45.60;;;-142.21;40.23;112049.66;5068702;28;20203;-75
2022/07/29 09:31:40;;;;;;;5.07;3.20;;;28.90;46.10;;;-142.21;39.68;112049.66;5075980;28;20546;-75
2022/07/29 09:34:09;;;;;;;5.30;2.70;;;29.00;45.30;;;-142.21;39.50;112049.66;5070303;28;20243;-75
2022/07/29 09:36:44;;;;;;;3.93;2.70;;;29.00;45.00;;;-142.21;39.76;112049.66;5070415;28;20286;-74
2022/07/29 09:39:12;;;;;;;3.00;2.80;;;29.00;45.10;;;-142.21;39.19;112049.66;5056851;28;20231;-75
2022/07/29 09:41:48;;;;;;;2.90;2.70;;;29.20;45.20;;;-142.21;38.74;112049.66;5059425;28;20254;-75
2022/07/29 09:44:18;;;;;;;3.83;2.67;;;29.30;44.50;;;-142.21;38.64;112049.66;5055661;28;20541;-75
2022/07/29 09:47:05;;;;;;;5.00;2.70;;;29.40;44.60;;;-142.21;39.12;112049.66;5054966;28;20229;-75
2022/07/29 09:49:33;;;;;;;3.67;2.80;;;29.60;44.40;;;-142.21;39.33;112049.66;5055402;28;20193;-75
2022/07/29 09:52:08;;;;;;;3.33;3.03;;;29.90;44.70;;;-142.21;37.57;112049.66;5055048;28;20546;-75
2022/07/29 09:54:37;;;;;;;3.40;2.37;;;29.90;43.10;;;-142.21;38.04;112049.66;5053938;28;20247;-75
2022/07/29 09:57:06;;;;;;;3.10;2.43;;;29.90;43.90;;;-142.21;37.85;112049.66;5055141;28;20209;-75
2022/07/29 09:59:38;;;;;;;3.43;2.33;;;30.10;44.10;;;-142.21;37.55;112049.66;5055519;28;20616;-76
2022/07/29 10:02:13;;;;;;;3.37;2.50;;;30.30;43.30;;;-142.21;36.79;112049.66;5061791;28;20254;-74
2022/07/29 10:04:41;;;;;;;5.77;3.20;;;30.50;42.50;;;-142.21;36.47;112049.66;5063229;28;20201;-71
2022/07/29 10:07:10;;;;;;;4.30;2.83;;;30.30;42.20;;;-142.21;37.15;112049.66;5061611;28;20566;-72
2022/07/29 10:09:38;;;;;;;6.80;3.07;;;30.20;42.80;;;-142.21;37.31;112049.66;5055052;28;20321;-71
2022/07/29 10:12:14;;;;;;;3.30;2.53;;;30.00;43.00;;;-142.21;37.99;112049.66;5065400;28;20560;-71
2022/07/29 10:14:43;;;;;;;4.83;2.90;;;29.90;43.20;;;-142.21;37.86;112049.66;5055637;28;20255;-72
2022/07/29 10:17:12;;;;;;;4.07;2.93;;;29.80;43.30;;;-142.21;37.99;112049.66;5054075;28;20200;-70